sensor_id;sensor_type;location;lat;lon;timestamp;temperature;humidity
23637;DHT22;11995;50.842;4.456;2023-05-01T12:07:23;17.50;99.90
23637;DHT22;11995;50.842;4.456;2023-05-01T12:09:51;17.70;99.90
23637;DHT22;11995;50.842;4.456;2023-05-01T12:12:19;18.10;99.90
23637;DHT22;11995;50.842;4.456;2023-05-01T12:14:47;18.30;99.90
23637;DHT22;11995;50.842;4.456;2023-05-01T12:17:14;18.50;99.90
23637;DHT22;11995;50.842;4.456;2023-05-01T12:19:48;18.50;99.90
23637;DHT22;11995;50.842;4.456;2023-05-01T12:22:16;18.50;99.90
23637;DHT22;11995;50.842;4.456;2023-05-01T12:24:51;18.50;99.90
23637;DHT22;11995;50.842;4.456;2023-05-01T12:27:19;18.70;99.90
23637;DHT22;11995;50.842;4.456;2023-05-01T12:29:47;18.50;99.90
23637;DHT22;11995;50.842;4.456;2023-05-01T12:32:15;18.30;99.90
23637;DHT22;11995;50.842;4.456;2023-05-01T12:34:43;18.30;99.90
23637;DHT22;11995;50.842;4.456;2023-05-01T12:37:11;18.30;99.90
23637;DHT22;11995;50.842;4.456;2023-05-01T12:39:39;18.40;99.90
23637;DHT22;11995;50.842;4.456;2023-05-01T12:42:14;18.40;99.90
23637;DHT22;11995;50.842;4.456;2023-05-01T12:44:43;18.50;99.90
23637;DHT22;11995;50.842;4.456;2023-05-01T12:47:11;18.20;99.90
23637;DHT22;11995;50.842;4.456;2023-05-01T12:49:38;18.20;99.90
23637;DHT22;11995;50.842;4.456;2023-05-01T12:52:07;18.20;99.90
23637;DHT22;11995;50.842;4.456;2023-05-01T12:54:37;18.10;99.90
23637;DHT22;11995;50.842;4.456;2023-05-01T12:57:13;18.20;99.90
23637;DHT22;11995;50.842;4.456;2023-05-01T12:59:45;18.30;99.90
23637;DHT22;11995;50.842;4.456;2023-05-01T13:02:16;18.20;99.90
23637;DHT22;11995;50.842;4.456;2023-05-01T13:04:44;18.40;99.90
23637;DHT22;11995;50.842;4.456;2023-05-01T13:07:15;18.50;99.90
23637;DHT22;11995;50.842;4.456;2023-05-01T13:09:54;18.50;99.90
23637;DHT22;11995;50.842;4.456;2023-05-01T13:12:29;18.40;99.90
23637;DHT22;11995;50.842;4.456;2023-05-01T13:14:52;18.30;99.90
23637;DHT22;11995;50.842;4.456;2023-05-01T13:17:23;18.30;99.90
23637;DHT22;11995;50.842;4.456;2023-05-01T13:19:56;18.50;99.90
23637;DHT22;11995;50.842;4.456;2023-05-01T13:22:32;18.60;99.90
23637;DHT22;11995;50.842;4.456;2023-05-01T13:25:01;18.70;99.90
23637;DHT22;11995;50.842;4.456;2023-05-01T13:27:29;18.80;99.90
23637;DHT22;11995;50.842;4.456;2023-05-01T13:29:58;18.60;99.90
23637;DHT22;11995;50.842;4.456;2023-05-01T13:32:26;18.60;99.90
23637;DHT22;11995;50.842;4.456;2023-05-01T13:34:54;18.50;99.90
23637;DHT22;11995;50.842;4.456;2023-05-01T13:37:23;18.30;99.90
23637;DHT22;11995;50.842;4.456;2023-05-01T13:39:55;18.00;99.90
23637;DHT22;11995;50.842;4.456;2023-05-01T13:42:23;17.70;99.90
23637;DHT22;11995;50.842;4.456;2023-05-01T13:44:54;17.80;99.90
23637;DHT22;11995;50.842;4.456;2023-05-01T13:47:23;18.10;99.90
23637;DHT22;11995;50.842;4.456;2023-05-01T13:49:53;18.30;99.90
23637;DHT22;11995;50.842;4.456;2023-05-01T13:52:22;18.50;99.90
23637;DHT22;11995;50.842;4.456;2023-05-01T13:54:51;18.80;99.90
23637;DHT22;11995;50.842;4.456;2023-05-01T13:57:19;18.80;99.90
23637;DHT22;11995;50.842;4.456;2023-05-01T13:59:47;19.00;99.90
23637;DHT22;11995;50.842;4.456;2023-05-01T14:02:28;19.00;99.90
23637;DHT22;11995;50.842;4.456;2023-05-01T14:04:57;18.80;99.90
23637;DHT22;11995;50.842;4.456;2023-05-01T14:07:24;18.50;99.90
23637;DHT22;11995;50.842;4.456;2023-05-01T14:09:54;18.20;99.90
23637;DHT22;11995;50.842;4.456;2023-05-01T14:12:30;18.10;99.90
23637;DHT22;11995;50.842;4.456;2023-05-01T14:15:00;17.90;99.90
23637;DHT22;11995;50.842;4.456;2023-05-01T14:17:32;18.20;99.90
23637;DHT22;11995;50.842;4.456;2023-05-01T14:20:05;18.10;99.90
23637;DHT22;11995;50.842;4.456;2023-05-01T14:22:44;17.90;99.90
23637;DHT22;11995;50.842;4.456;2023-05-01T14:25:26;18.10;99.90
23637;DHT22;11995;50.842;4.456;2023-05-01T14:27:57;18.30;99.90
23637;DHT22;11995;50.842;4.456;2023-05-01T14:30:29;18.20;99.90
23637;DHT22;11995;50.842;4.456;2023-05-01T14:33:01;18.20;99.90
23637;DHT22;11995;50.842;4.456;2023-05-01T14:35:29;18.30;99.90
23637;DHT22;11995;50.842;4.456;2023-05-01T14:38:21;18.70;99.90
23637;DHT22;11995;50.842;4.456;2023-05-01T14:40:27;18.80;99.90
23637;DHT22;11995;50.842;4.456;2023-05-01T14:42:57;18.50;99.90
23637;DHT22;11995;50.842;4.456;2023-05-01T14:45:24;18.60;99.90
23637;DHT22;11995;50.842;4.456;2023-05-01T14:47:52;18.50;99.90
23637;DHT22;11995;50.842;4.456;2023-05-01T14:50:21;18.20;99.90
23637;DHT22;11995;50.842;4.456;2023-05-01T14:52:54;18.30;99.90
23637;DHT22;11995;50.842;4.456;2023-05-01T14:55:27;18.20;99.90
23637;DHT22;11995;50.842;4.456;2023-05-01T14:57:56;18.30;99.90
23637;DHT22;11995;50.842;4.456;2023-05-01T15:00:24;18.30;99.90
23637;DHT22;11995;50.842;4.456;2023-05-01T15:02:53;18.20;99.90
23637;DHT22;11995;50.842;4.456;2023-05-01T15:05:20;18.00;99.90
23637;DHT22;11995;50.842;4.456;2023-05-01T15:07:50;18.00;99.90
23637;DHT22;11995;50.842;4.456;2023-05-01T15:10:18;17.90;99.90
23637;DHT22;11995;50.842;4.456;2023-05-01T15:12:47;17.70;99.90
23637;DHT22;11995;50.842;4.456;2023-05-01T15:15:14;17.70;99.90
23637;DHT22;11995;50.842;4.456;2023-05-01T15:17:42;17.90;99.90
23637;DHT22;11995;50.842;4.456;2023-05-01T15:20:10;17.90;99.90
23637;DHT22;11995;50.842;4.456;2023-05-01T15:22:38;18.00;99.90
23637;DHT22;11995;50.842;4.456;2023-05-01T15:25:07;18.10;99.90
23637;DHT22;11995;50.842;4.456;2023-05-01T15:27:37;18.00;99.90
23637;DHT22;11995;50.842;4.456;2023-05-01T15:30:05;18.00;99.90
23637;DHT22;11995;50.842;4.456;2023-05-01T15:32:33;17.90;99.90
23637;DHT22;11995;50.842;4.456;2023-05-01T15:35:02;17.60;99.90
23637;DHT22;11995;50.842;4.456;2023-05-01T15:37:31;17.70;99.90
23637;DHT22;11995;50.842;4.456;2023-05-01T15:39:58;17.70;99.90
23637;DHT22;11995;50.842;4.456;2023-05-01T15:42:25;17.70;99.90
23637;DHT22;11995;50.842;4.456;2023-05-01T15:44:53;17.80;99.90
23637;DHT22;11995;50.842;4.456;2023-05-01T15:47:20;17.70;99.90
23637;DHT22;11995;50.842;4.456;2023-05-01T15:49:48;17.80;99.90
23637;DHT22;11995;50.842;4.456;2023-05-01T15:52:15;18.00;99.90
23637;DHT22;11995;50.842;4.456;2023-05-01T15:54:45;18.10;99.90
23637;DHT22;11995;50.842;4.456;2023-05-01T15:57:17;17.70;99.90
23637;DHT22;11995;50.842;4.456;2023-05-01T15:59:45;17.50;99.90
23637;DHT22;11995;50.842;4.456;2023-05-01T16:02:14;17.40;99.90
23637;DHT22;11995;50.842;4.456;2023-05-01T16:04:46;17.50;99.90
23637;DHT22;11995;50.842;4.456;2023-05-01T16:07:14;17.70;99.90
23637;DHT22;11995;50.842;4.456;2023-05-01T16:09:42;17.90;99.90
23637;DHT22;11995;50.842;4.456;2023-05-01T16:12:09;17.60;99.90
23637;DHT22;11995;50.842;4.456;2023-05-01T16:14:40;17.50;99.90
23637;DHT22;11995;50.842;4.456;2023-05-01T16:17:08;17.40;99.90
23637;DHT22;11995;50.842;4.456;2023-05-01T16:19:35;17.30;99.90
23637;DHT22;11995;50.842;4.456;2023-05-01T16:22:04;17.20;99.90
23637;DHT22;11995;50.842;4.456;2023-05-01T16:24:33;17.30;99.90
23637;DHT22;11995;50.842;4.456;2023-05-01T16:27:10;17.30;99.90
23637;DHT22;11995;50.842;4.456;2023-05-01T16:29:37;17.20;99.90
23637;DHT22;11995;50.842;4.456;2023-05-01T16:32:05;17.10;99.90
23637;DHT22;11995;50.842;4.456;2023-05-01T16:34:37;17.00;99.90
23637;DHT22;11995;50.842;4.456;2023-05-01T16:37:08;16.80;99.90
23637;DHT22;11995;50.842;4.456;2023-05-01T16:39:37;16.70;99.90
23637;DHT22;11995;50.842;4.456;2023-05-01T16:42:05;16.70;99.90
23637;DHT22;11995;50.842;4.456;2023-05-01T16:44:34;16.70;99.90
23637;DHT22;11995;50.842;4.456;2023-05-01T16:47:02;16.80;99.90
23637;DHT22;11995;50.842;4.456;2023-05-01T16:49:30;16.70;99.90
23637;DHT22;11995;50.842;4.456;2023-05-01T16:51:58;16.70;99.90
23637;DHT22;11995;50.842;4.456;2023-05-01T16:54:26;16.80;99.90
23637;DHT22;11995;50.842;4.456;2023-05-01T16:57:06;16.80;99.90
23637;DHT22;11995;50.842;4.456;2023-05-01T16:59:33;16.80;99.90
23637;DHT22;11995;50.842;4.456;2023-05-01T17:02:01;16.80;99.90
23637;DHT22;11995;50.842;4.456;2023-05-01T17:04:30;16.80;99.90
23637;DHT22;11995;50.842;4.456;2023-05-01T17:06:58;16.80;99.90
23637;DHT22;11995;50.842;4.456;2023-05-01T17:09:26;16.70;99.90
23637;DHT22;11995;50.842;4.456;2023-05-01T17:11:54;16.70;99.90
23637;DHT22;11995;50.842;4.456;2023-05-01T17:14:22;16.70;99.90
23637;DHT22;11995;50.842;4.456;2023-05-01T17:16:50;16.80;99.90
23637;DHT22;11995;50.842;4.456;2023-05-01T17:19:18;16.70;99.90
23637;DHT22;11995;50.842;4.456;2023-05-01T17:21:45;16.60;99.90
23637;DHT22;11995;50.842;4.456;2023-05-01T17:24:13;16.50;99.90
23637;DHT22;11995;50.842;4.456;2023-05-01T17:26:41;16.40;99.90
23637;DHT22;11995;50.842;4.456;2023-05-01T17:29:09;16.50;99.90
23637;DHT22;11995;50.842;4.456;2023-05-01T17:31:37;16.40;99.90
23637;DHT22;11995;50.842;4.456;2023-05-01T17:34:04;16.40;99.90
23637;DHT22;11995;50.842;4.456;2023-05-01T17:36:32;16.30;99.90
23637;DHT22;11995;50.842;4.456;2023-05-01T17:39:02;16.20;99.90
23637;DHT22;11995;50.842;4.456;2023-05-01T17:41:29;16.30;99.90
23637;DHT22;11995;50.842;4.456;2023-05-01T17:43:57;16.20;99.90
23637;DHT22;11995;50.842;4.456;2023-05-01T17:46:24;16.10;99.90
23637;DHT22;11995;50.842;4.456;2023-05-01T17:48:52;15.90;99.90
23637;DHT22;11995;50.842;4.456;2023-05-01T17:51:20;16.00;99.90
23637;DHT22;11995;50.842;4.456;2023-05-01T17:53:48;16.00;99.90
23637;DHT22;11995;50.842;4.456;2023-05-01T17:56:15;16.00;99.90
23637;DHT22;11995;50.842;4.456;2023-05-01T17:58:43;16.00;99.90
23637;DHT22;11995;50.842;4.456;2023-05-01T18:01:13;15.80;99.90
23637;DHT22;11995;50.842;4.456;2023-05-01T18:03:41;15.80;99.90
23637;DHT22;11995;50.842;4.456;2023-05-01T18:06:08;15.60;99.90
23637;DHT22;11995;50.842;4.456;2023-05-01T18:08:36;15.60;99.90
23637;DHT22;11995;50.842;4.456;2023-05-01T18:11:03;15.60;99.90
23637;DHT22;11995;50.842;4.456;2023-05-01T18:13:31;15.70;99.90
23637;DHT22;11995;50.842;4.456;2023-05-01T18:16:00;15.70;99.90
23637;DHT22;11995;50.842;4.456;2023-05-01T18:18:28;15.60;99.90
23637;DHT22;11995;50.842;4.456;2023-05-01T18:20:55;15.60;99.90
23637;DHT22;11995;50.842;4.456;2023-05-01T18:23:23;15.50;99.90
23637;DHT22;11995;50.842;4.456;2023-05-01T18:25:53;15.50;99.90
23637;DHT22;11995;50.842;4.456;2023-05-01T18:28:21;15.50;99.90
23637;DHT22;11995;50.842;4.456;2023-05-01T18:30:49;15.50;99.90
23637;DHT22;11995;50.842;4.456;2023-05-01T18:33:17;15.50;99.90
23637;DHT22;11995;50.842;4.456;2023-05-01T18:35:46;15.50;99.90
23637;DHT22;11995;50.842;4.456;2023-05-01T18:38:13;15.50;99.90
23637;DHT22;11995;50.842;4.456;2023-05-01T18:40:41;15.40;99.90
23637;DHT22;11995;50.842;4.456;2023-05-01T18:43:09;15.50;99.90
23637;DHT22;11995;50.842;4.456;2023-05-01T18:45:37;15.40;99.90
23637;DHT22;11995;50.842;4.456;2023-05-01T18:48:05;15.20;99.90
23637;DHT22;11995;50.842;4.456;2023-05-01T18:50:33;15.20;99.90
23637;DHT22;11995;50.842;4.456;2023-05-01T18:53:01;15.10;99.90
23637;DHT22;11995;50.842;4.456;2023-05-01T18:55:28;15.10;99.90
23637;DHT22;11995;50.842;4.456;2023-05-01T18:57:56;15.10;99.90
23637;DHT22;11995;50.842;4.456;2023-05-01T19:00:24;15.00;99.90
23637;DHT22;11995;50.842;4.456;2023-05-01T19:02:52;15.00;99.90
23637;DHT22;11995;50.842;4.456;2023-05-01T19:05:19;14.90;99.90
23637;DHT22;11995;50.842;4.456;2023-05-01T19:07:48;14.90;99.90
23637;DHT22;11995;50.842;4.456;2023-05-01T19:10:15;14.90;99.90
23637;DHT22;11995;50.842;4.456;2023-05-01T19:12:43;14.90;99.90
23637;DHT22;11995;50.842;4.456;2023-05-01T19:15:11;14.90;99.90
23637;DHT22;11995;50.842;4.456;2023-05-01T19:17:39;14.90;99.90
23637;DHT22;11995;50.842;4.456;2023-05-01T19:20:07;14.80;99.90
23637;DHT22;11995;50.842;4.456;2023-05-01T19:22:35;14.70;99.90
23637;DHT22;11995;50.842;4.456;2023-05-01T19:25:02;14.60;99.90
23637;DHT22;11995;50.842;4.456;2023-05-01T19:27:30;14.60;99.90
23637;DHT22;11995;50.842;4.456;2023-05-01T19:29:58;14.50;99.90
23637;DHT22;11995;50.842;4.456;2023-05-01T19:32:26;14.50;99.90
23637;DHT22;11995;50.842;4.456;2023-05-01T19:34:56;14.60;99.90
23637;DHT22;11995;50.842;4.456;2023-05-01T19:37:25;14.70;99.90
23637;DHT22;11995;50.842;4.456;2023-05-01T19:39:53;14.60;99.90
23637;DHT22;11995;50.842;4.456;2023-05-01T19:42:20;14.50;99.90
23637;DHT22;11995;50.842;4.456;2023-05-01T19:44:48;14.50;99.90
23637;DHT22;11995;50.842;4.456;2023-05-01T19:47:15;14.40;99.90
23637;DHT22;11995;50.842;4.456;2023-05-01T19:49:43;14.40;99.90
23637;DHT22;11995;50.842;4.456;2023-05-01T19:52:11;14.40;99.90
23637;DHT22;11995;50.842;4.456;2023-05-01T19:54:38;14.20;99.90
23637;DHT22;11995;50.842;4.456;2023-05-01T19:57:06;14.10;99.90
23637;DHT22;11995;50.842;4.456;2023-05-01T19:59:33;14.10;99.90
23637;DHT22;11995;50.842;4.456;2023-05-01T20:02:03;14.00;99.90
23637;DHT22;11995;50.842;4.456;2023-05-01T20:04:30;14.10;99.90
23637;DHT22;11995;50.842;4.456;2023-05-01T20:06:58;14.10;99.90
23637;DHT22;11995;50.842;4.456;2023-05-01T20:09:27;14.10;99.90
23637;DHT22;11995;50.842;4.456;2023-05-01T20:11:55;14.10;99.90
23637;DHT22;11995;50.842;4.456;2023-05-01T20:14:22;14.10;99.90
23637;DHT22;11995;50.842;4.456;2023-05-01T20:16:50;14.10;99.90
23637;DHT22;11995;50.842;4.456;2023-05-01T20:19:18;14.10;99.90
23637;DHT22;11995;50.842;4.456;2023-05-01T20:21:50;13.90;99.90
23637;DHT22;11995;50.842;4.456;2023-05-01T20:24:15;13.90;99.90
23637;DHT22;11995;50.842;4.456;2023-05-01T20:26:43;13.90;99.90
23637;DHT22;11995;50.842;4.456;2023-05-01T20:29:11;13.90;99.90
23637;DHT22;11995;50.842;4.456;2023-05-01T20:31:41;13.90;99.90
23637;DHT22;11995;50.842;4.456;2023-05-01T20:34:09;13.80;99.90
23637;DHT22;11995;50.842;4.456;2023-05-01T20:36:39;13.70;99.90
23637;DHT22;11995;50.842;4.456;2023-05-01T20:39:07;13.50;99.90
23637;DHT22;11995;50.842;4.456;2023-05-01T20:41:34;13.50;99.90
23637;DHT22;11995;50.842;4.456;2023-05-01T20:44:02;13.50;99.90
23637;DHT22;11995;50.842;4.456;2023-05-01T20:46:30;13.50;99.90
23637;DHT22;11995;50.842;4.456;2023-05-01T20:48:58;13.60;99.90
23637;DHT22;11995;50.842;4.456;2023-05-01T20:51:25;13.60;99.90
23637;DHT22;11995;50.842;4.456;2023-05-01T20:53:53;13.50;99.90
23637;DHT22;11995;50.842;4.456;2023-05-01T20:56:20;13.50;99.90
23637;DHT22;11995;50.842;4.456;2023-05-01T20:58:49;13.50;99.90
23637;DHT22;11995;50.842;4.456;2023-05-01T21:01:16;13.40;99.90
23637;DHT22;11995;50.842;4.456;2023-05-01T21:03:44;13.30;99.90
23637;DHT22;11995;50.842;4.456;2023-05-01T21:06:11;13.40;99.90
23637;DHT22;11995;50.842;4.456;2023-05-01T21:08:40;13.50;99.90
23637;DHT22;11995;50.842;4.456;2023-05-01T21:11:08;13.50;99.90
23637;DHT22;11995;50.842;4.456;2023-05-01T21:13:36;13.40;99.90
23637;DHT22;11995;50.842;4.456;2023-05-01T21:16:12;13.40;99.90
23637;DHT22;11995;50.842;4.456;2023-05-01T21:18:34;13.30;99.90
23637;DHT22;11995;50.842;4.456;2023-05-01T21:21:02;13.20;99.90
23637;DHT22;11995;50.842;4.456;2023-05-01T21:23:29;13.00;99.90
23637;DHT22;11995;50.842;4.456;2023-05-01T21:25:57;13.00;99.90
23637;DHT22;11995;50.842;4.456;2023-05-01T21:28:25;12.90;99.90
23637;DHT22;11995;50.842;4.456;2023-05-01T21:30:53;13.00;99.90
23637;DHT22;11995;50.842;4.456;2023-05-01T21:33:21;13.10;99.90
23637;DHT22;11995;50.842;4.456;2023-05-01T21:35:48;13.00;99.90
23637;DHT22;11995;50.842;4.456;2023-05-01T21:38:17;13.10;99.90
23637;DHT22;11995;50.842;4.456;2023-05-01T21:40:44;13.10;99.90
23637;DHT22;11995;50.842;4.456;2023-05-01T21:43:12;13.10;99.90
23637;DHT22;11995;50.842;4.456;2023-05-01T21:45:47;13.00;99.90
23637;DHT22;11995;50.842;4.456;2023-05-01T21:48:14;13.00;99.90
23637;DHT22;11995;50.842;4.456;2023-05-01T21:50:45;12.90;99.90
23637;DHT22;11995;50.842;4.456;2023-05-01T21:53:12;12.80;99.90
23637;DHT22;11995;50.842;4.456;2023-05-01T21:55:41;12.90;99.90
23637;DHT22;11995;50.842;4.456;2023-05-01T21:58:08;13.00;99.90
23637;DHT22;11995;50.842;4.456;2023-05-01T22:00:38;13.00;99.90
23637;DHT22;11995;50.842;4.456;2023-05-01T22:03:07;13.00;99.90
23637;DHT22;11995;50.842;4.456;2023-05-01T22:05:35;12.90;99.90
23637;DHT22;11995;50.842;4.456;2023-05-01T22:08:05;12.90;99.90
23637;DHT22;11995;50.842;4.456;2023-05-01T22:10:33;12.80;99.90
23637;DHT22;11995;50.842;4.456;2023-05-01T22:13:01;12.80;99.90
23637;DHT22;11995;50.842;4.456;2023-05-01T22:15:29;12.80;99.90
23637;DHT22;11995;50.842;4.456;2023-05-01T22:17:56;12.80;99.90
23637;DHT22;11995;50.842;4.456;2023-05-01T22:20:24;12.80;99.90
23637;DHT22;11995;50.842;4.456;2023-05-01T22:22:51;12.70;99.90
23637;DHT22;11995;50.842;4.456;2023-05-01T22:25:19;12.60;99.90
23637;DHT22;11995;50.842;4.456;2023-05-01T22:27:46;12.60;99.90
23637;DHT22;11995;50.842;4.456;2023-05-01T22:30:14;12.60;99.90
23637;DHT22;11995;50.842;4.456;2023-05-01T22:32:41;12.70;99.90
23637;DHT22;11995;50.842;4.456;2023-05-01T22:35:09;12.60;99.90
23637;DHT22;11995;50.842;4.456;2023-05-01T22:37:37;12.70;99.90
23637;DHT22;11995;50.842;4.456;2023-05-01T22:40:11;12.60;99.90
23637;DHT22;11995;50.842;4.456;2023-05-01T22:42:39;12.70;99.90
23637;DHT22;11995;50.842;4.456;2023-05-01T22:45:07;12.60;99.90
23637;DHT22;11995;50.842;4.456;2023-05-01T22:47:35;12.60;99.90
23637;DHT22;11995;50.842;4.456;2023-05-01T22:50:02;12.60;99.90
23637;DHT22;11995;50.842;4.456;2023-05-01T22:52:30;12.60;99.90
23637;DHT22;11995;50.842;4.456;2023-05-01T22:54:58;12.50;99.90
23637;DHT22;11995;50.842;4.456;2023-05-01T22:57:25;12.50;99.90
23637;DHT22;11995;50.842;4.456;2023-05-01T22:59:53;12.50;99.90
23637;DHT22;11995;50.842;4.456;2023-05-01T23:02:20;12.50;99.90
23637;DHT22;11995;50.842;4.456;2023-05-01T23:04:48;12.40;99.90
23637;DHT22;11995;50.842;4.456;2023-05-01T23:07:17;12.40;99.90
23637;DHT22;11995;50.842;4.456;2023-05-01T23:09:45;12.40;99.90
23637;DHT22;11995;50.842;4.456;2023-05-01T23:12:23;12.40;99.90
23637;DHT22;11995;50.842;4.456;2023-05-01T23:14:51;12.30;99.90
23637;DHT22;11995;50.842;4.456;2023-05-01T23:17:19;12.40;99.90
23637;DHT22;11995;50.842;4.456;2023-05-01T23:19:48;12.40;99.90
23637;DHT22;11995;50.842;4.456;2023-05-01T23:22:16;12.40;99.90
23637;DHT22;11995;50.842;4.456;2023-05-01T23:24:46;12.40;99.90
23637;DHT22;11995;50.842;4.456;2023-05-01T23:27:16;12.40;99.90
23637;DHT22;11995;50.842;4.456;2023-05-01T23:29:52;12.30;99.90
23637;DHT22;11995;50.842;4.456;2023-05-01T23:32:28;12.30;99.90
23637;DHT22;11995;50.842;4.456;2023-05-01T23:35:12;12.30;99.90
23637;DHT22;11995;50.842;4.456;2023-05-01T23:37:29;12.30;99.90
23637;DHT22;11995;50.842;4.456;2023-05-01T23:39:57;12.20;99.90
23637;DHT22;11995;50.842;4.456;2023-05-01T23:42:25;12.20;99.90
23637;DHT22;11995;50.842;4.456;2023-05-01T23:44:54;12.20;99.90
23637;DHT22;11995;50.842;4.456;2023-05-01T23:47:22;12.20;99.90
23637;DHT22;11995;50.842;4.456;2023-05-01T23:49:51;12.20;99.90
23637;DHT22;11995;50.842;4.456;2023-05-01T23:52:18;12.20;99.90
23637;DHT22;11995;50.842;4.456;2023-05-01T23:54:46;12.20;99.90
23637;DHT22;11995;50.842;4.456;2023-05-01T23:57:14;12.20;99.90
23637;DHT22;11995;50.842;4.456;2023-05-01T23:59:42;12.20;99.90
